createdAt,value
2019-01-20T00:02:03.286Z,44.60
2019-01-20T00:04:34.022Z,34.95
2019-01-20T00:07:04.775Z,37.50
2019-01-20T00:09:35.674Z,35.30
2019-01-20T00:12:06.425Z,42.75
2019-01-20T00:14:37.221Z,43.90
2019-01-20T00:17:07.877Z,39.75
2019-01-20T00:19:38.566Z,36.42
2019-01-20T00:22:09.211Z,48.63
2019-01-20T00:24:40.068Z,37.45
2019-01-20T00:27:10.891Z,40.50
2019-01-20T00:29:41.565Z,39.45
2019-01-20T00:32:12.283Z,36.23
2019-01-20T00:34:43.062Z,38.00
2019-01-20T00:37:13.840Z,37.10
2019-01-20T00:39:44.519Z,44.25
2019-01-20T00:42:15.333Z,44.95
2019-01-20T00:44:46.100Z,36.48
2019-01-20T00:47:16.935Z,34.43
2019-01-20T00:49:47.757Z,36.30
2019-01-20T00:52:18.520Z,31.93
2019-01-20T00:54:49.227Z,38.38
2019-01-20T00:57:19.945Z,37.50
2019-01-20T00:59:50.704Z,38.08
2019-01-20T01:02:21.412Z,35.43
2019-01-20T01:04:52.265Z,39.88
2019-01-20T01:07:23.036Z,35.85
2019-01-20T01:09:53.807Z,40.15
2019-01-20T01:12:24.796Z,42.90
2019-01-20T01:14:55.548Z,34.35
2019-01-20T01:17:26.261Z,36.77
2019-01-20T01:19:56.930Z,39.10
2019-01-20T01:22:27.685Z,45.13
2019-01-20T01:24:58.402Z,39.95
2019-01-20T01:27:29.251Z,37.90
2019-01-20T01:29:59.944Z,36.45
2019-01-20T01:32:30.617Z,42.23
2019-01-20T01:35:01.309Z,39.40
2019-01-20T01:37:31.925Z,41.63
2019-01-20T01:40:06.739Z,36.85
2019-01-20T01:42:37.648Z,45.92
2019-01-20T01:45:14.919Z,39.48
2019-01-20T01:47:45.901Z,31.90
2019-01-20T01:50:18.308Z,41.55
2019-01-20T01:52:49.037Z,34.67
2019-01-20T01:55:19.856Z,49.27
2019-01-20T01:57:50.570Z,35.98
2019-01-20T02:00:24.022Z,39.23
2019-01-20T02:02:54.677Z,36.75
2019-01-20T02:05:25.405Z,38.10
2019-01-20T02:07:56.111Z,33.40
2019-01-20T02:10:26.832Z,38.08
2019-01-20T02:12:57.495Z,35.87
2019-01-20T02:15:28.266Z,37.33
2019-01-20T02:17:59.027Z,38.02
2019-01-20T02:20:29.789Z,32.23
2019-01-20T02:23:00.664Z,42.48
2019-01-20T02:25:31.432Z,39.08
2019-01-20T02:28:02.302Z,36.83
2019-01-20T02:30:33.452Z,39.50
2019-01-20T02:33:04.203Z,42.53
2019-01-20T02:35:34.891Z,33.30
2019-01-20T02:38:05.711Z,36.77
2019-01-20T02:40:36.444Z,40.60
2019-01-20T02:43:07.166Z,42.53
2019-01-20T02:45:37.906Z,38.83
2019-01-20T02:48:08.609Z,41.33
2019-01-20T02:50:39.355Z,41.58
2019-01-20T02:53:10.082Z,41.30
2019-01-20T02:55:40.863Z,44.55
2019-01-20T02:58:11.656Z,36.75
2019-01-20T03:00:42.369Z,35.63
2019-01-20T03:03:13.037Z,31.52
2019-01-20T03:05:43.937Z,41.28
2019-01-20T03:08:14.640Z,37.83
2019-01-20T03:10:45.407Z,36.23
2019-01-20T03:13:16.113Z,35.30
2019-01-20T03:15:46.870Z,39.73
2019-01-20T03:18:17.623Z,40.28
2019-01-20T03:20:48.408Z,39.73
2019-01-20T03:23:19.187Z,37.45
2019-01-20T03:25:49.900Z,44.40
2019-01-20T03:28:20.699Z,33.88
2019-01-20T03:30:51.381Z,41.53
2019-01-20T03:33:21.863Z,38.92
2019-01-20T03:35:52.424Z,36.13
2019-01-20T03:38:22.943Z,40.25
2019-01-20T03:40:53.414Z,39.20
2019-01-20T03:43:23.976Z,40.23
2019-01-20T03:45:54.494Z,39.60
2019-01-20T03:48:25.031Z,39.65
2019-01-20T03:50:55.584Z,39.88
2019-01-20T03:53:26.088Z,46.35
2019-01-20T03:55:56.689Z,43.87
2019-01-20T03:58:27.296Z,45.15
2019-01-20T04:00:57.817Z,47.58
2019-01-20T04:03:28.299Z,45.27
2019-01-20T04:05:58.875Z,41.25
2019-01-20T04:08:29.388Z,45.52
2019-01-20T04:10:59.858Z,42.98
2019-01-20T04:13:30.436Z,47.60
2019-01-20T04:16:00.921Z,41.30
2019-01-20T04:18:31.411Z,49.65
2019-01-20T04:21:01.963Z,37.73
2019-01-20T04:23:32.521Z,44.63
2019-01-20T04:26:03.010Z,47.93
2019-01-20T04:28:33.570Z,46.10
2019-01-20T04:31:04.086Z,47.48
2019-01-20T04:33:34.591Z,48.60
2019-01-20T04:36:05.441Z,43.55
2019-01-20T04:38:35.983Z,45.55
2019-01-20T04:41:06.482Z,41.35
2019-01-20T04:43:37.064Z,42.00
2019-01-20T04:46:07.573Z,45.15
2019-01-20T04:48:38.087Z,43.33
2019-01-20T04:51:08.691Z,42.78
2019-01-20T04:53:39.764Z,52.85
2019-01-20T04:56:10.267Z,47.95
2019-01-20T04:58:40.828Z,43.70
2019-01-20T05:01:11.383Z,43.65
2019-01-20T05:03:41.898Z,44.63
2019-01-20T05:06:12.474Z,47.33
2019-01-20T05:08:42.961Z,43.35
2019-01-20T05:11:13.472Z,40.63
2019-01-20T05:13:44.053Z,41.48
2019-01-20T05:16:14.540Z,48.17
2019-01-20T05:18:45.078Z,47.13
2019-01-20T05:21:15.595Z,42.88
2019-01-20T05:23:46.092Z,39.55
2019-01-20T05:26:16.595Z,53.70
2019-01-20T05:28:47.141Z,42.63
2019-01-20T05:31:17.686Z,50.85
2019-01-20T05:33:48.190Z,43.25
2019-01-20T05:36:18.731Z,46.30
2019-01-20T05:38:49.222Z,44.30
2019-01-20T05:41:19.729Z,40.40
2019-01-20T05:43:50.350Z,46.48
2019-01-20T05:46:20.864Z,48.98
2019-01-20T05:48:51.265Z,47.17
2019-01-20T05:51:22.657Z,51.20
2019-01-20T05:53:53.166Z,49.83
2019-01-20T05:56:23.661Z,47.73
2019-01-20T05:58:54.205Z,50.33
2019-01-20T06:01:24.714Z,47.03
2019-01-20T06:03:55.202Z,47.40
2019-01-20T06:06:25.763Z,53.60
2019-01-20T06:08:56.244Z,50.55
2019-01-20T06:11:26.765Z,47.85
2019-01-20T06:13:57.325Z,47.48
2019-01-20T06:16:27.806Z,48.25
2019-01-20T06:18:58.302Z,46.13
2019-01-20T06:21:28.869Z,54.38
2019-01-20T06:23:59.388Z,43.68
2019-01-20T06:26:29.888Z,53.00
2019-01-20T06:29:00.465Z,54.95
2019-01-20T06:31:30.944Z,50.73
2019-01-20T06:34:01.429Z,52.70
2019-01-20T06:36:31.984Z,54.00
2019-01-20T06:39:03.059Z,46.23
2019-01-20T06:41:33.469Z,48.28
2019-01-20T06:44:04.085Z,54.45
2019-01-20T06:46:34.573Z,53.90
2019-01-20T06:49:05.057Z,40.75
2019-01-20T06:51:35.616Z,45.85
2019-01-20T06:54:06.177Z,49.90
2019-01-20T06:56:36.683Z,46.08
2019-01-20T06:59:07.286Z,42.38
2019-01-20T07:01:37.768Z,49.20
2019-01-20T07:04:08.355Z,44.80
2019-01-20T07:06:38.908Z,49.48
2019-01-20T07:09:10.194Z,43.95
2019-01-20T07:11:40.697Z,51.63
2019-01-20T07:14:11.299Z,52.10
2019-01-20T07:16:41.796Z,55.12
2019-01-20T07:19:12.298Z,49.47
2019-01-20T07:21:42.861Z,47.48
2019-01-20T07:24:13.289Z,47.00
2019-01-20T07:26:43.805Z,52.33
2019-01-20T07:29:14.359Z,46.77
2019-01-20T07:31:44.857Z,51.10
2019-01-20T07:34:15.405Z,46.98
2019-01-20T07:36:45.973Z,45.63
2019-01-20T07:39:16.502Z,50.70
2019-01-20T07:41:47.007Z,53.42
2019-01-20T07:44:17.581Z,51.58
2019-01-20T07:46:48.090Z,51.18
2019-01-20T07:49:18.587Z,53.83
2019-01-20T07:51:49.197Z,50.60
2019-01-20T07:54:19.754Z,47.73
2019-01-20T07:56:50.279Z,51.77
2019-01-20T07:59:20.858Z,49.55
2019-01-20T08:01:51.410Z,50.63
2019-01-20T08:04:21.949Z,52.98
2019-01-20T08:06:52.424Z,47.40
2019-01-20T08:09:22.924Z,46.90
2019-01-20T08:11:53.434Z,48.63
2019-01-20T08:14:23.995Z,46.40
2019-01-20T08:16:54.532Z,42.83
2019-01-20T08:19:25.010Z,46.25
2019-01-20T08:21:56.356Z,47.45
2019-01-20T08:24:26.904Z,46.60
2019-01-20T08:26:57.426Z,54.63
2019-01-20T08:29:28.020Z,40.05
2019-01-20T08:31:58.524Z,39.83
2019-01-20T08:34:29.072Z,40.83
2019-01-20T08:36:59.627Z,51.28
2019-01-20T08:39:30.139Z,47.83
2019-01-20T08:42:00.650Z,42.75
2019-01-20T08:44:39.317Z,50.40
2019-01-20T08:47:38.180Z,45.35
2019-01-20T08:50:16.621Z,46.15
2019-01-20T08:52:47.105Z,43.27
2019-01-20T08:55:18.587Z,56.10
2019-01-20T08:57:49.112Z,52.90
2019-01-20T09:00:19.945Z,47.60
2019-01-20T09:02:50.475Z,40.00
2019-01-20T09:05:21.003Z,45.27
2019-01-20T09:07:51.544Z,48.15
2019-01-20T09:10:26.057Z,41.70
2019-01-20T09:13:01.412Z,45.30
2019-01-20T09:15:31.965Z,41.92
2019-01-20T09:18:02.466Z,38.33
2019-01-20T09:20:33.833Z,44.63
2019-01-20T09:23:04.381Z,37.65
2019-01-20T09:25:34.803Z,36.23
2019-01-20T09:28:05.419Z,38.70
2019-01-20T09:30:35.994Z,39.42
2019-01-20T09:33:25.616Z,50.07
2019-01-20T09:35:57.151Z,48.30
2019-01-20T09:38:27.815Z,40.38
2019-01-20T09:40:58.460Z,45.60
2019-01-20T09:43:29.178Z,34.38
2019-01-20T09:45:59.679Z,44.90
2019-01-20T09:48:30.377Z,34.95
2019-01-20T09:51:01.003Z,42.43
2019-01-20T09:53:31.515Z,38.13
2019-01-20T09:56:02.150Z,38.13
2019-01-20T09:58:32.839Z,37.50
2019-01-20T10:01:03.471Z,38.73
2019-01-20T10:03:34.465Z,39.53
2019-01-20T10:06:05.406Z,36.70
2019-01-20T10:08:36.104Z,35.25
2019-01-20T10:11:06.696Z,39.10
2019-01-20T10:13:37.559Z,34.05
2019-01-20T10:16:08.236Z,42.50
2019-01-20T10:18:38.790Z,42.27
2019-01-20T10:21:09.415Z,35.90
2019-01-20T10:23:40.611Z,30.80
2019-01-20T10:26:11.253Z,36.30
2019-01-20T10:28:42.067Z,40.08
2019-01-20T10:31:12.909Z,41.88
2019-01-20T10:33:43.602Z,32.42
2019-01-20T10:36:14.344Z,38.92
2019-01-20T10:38:45.108Z,39.23
2019-01-20T10:41:15.614Z,36.40
2019-01-20T10:43:46.418Z,37.28
2019-01-20T10:46:17.185Z,36.33
2019-01-20T10:48:47.788Z,45.70
2019-01-20T10:51:18.525Z,37.05
2019-01-20T10:53:53.065Z,43.65
2019-01-20T10:56:21.427Z,45.45
2019-01-20T10:58:52.575Z,39.95
2019-01-20T11:01:23.256Z,41.45
2019-01-20T11:03:53.879Z,40.80
2019-01-20T11:06:24.530Z,38.78
2019-01-20T11:08:55.760Z,39.50
2019-01-20T11:11:26.375Z,39.88
2019-01-20T11:13:57.258Z,44.48
2019-01-20T11:16:27.943Z,35.13
2019-01-20T11:18:58.516Z,37.95
2019-01-20T11:21:29.369Z,40.10
2019-01-20T11:24:00.507Z,39.55
2019-01-20T11:26:31.171Z,42.83
2019-01-20T11:29:01.773Z,41.85
2019-01-20T11:31:32.392Z,45.63
2019-01-20T11:34:03.056Z,37.17
2019-01-20T11:36:33.917Z,40.60
2019-01-20T11:39:07.751Z,43.28
2019-01-20T11:41:38.422Z,38.20
2019-01-20T11:44:09.003Z,38.88
2019-01-20T11:46:39.551Z,35.92
2019-01-20T11:49:10.275Z,39.10
2019-01-20T11:51:40.907Z,39.50
2019-01-20T11:54:11.574Z,44.53
2019-01-20T11:56:42.243Z,40.00
2019-01-20T11:59:13.930Z,38.23
2019-01-20T12:01:44.435Z,42.13
2019-01-20T12:04:15.103Z,39.57
2019-01-20T12:06:45.649Z,35.92
2019-01-20T12:09:16.256Z,37.13
2019-01-20T12:11:47.364Z,37.30
2019-01-20T12:14:24.013Z,43.43
2019-01-20T12:16:51.543Z,37.73
2019-01-20T12:19:28.516Z,42.85
2019-01-20T12:21:58.750Z,45.35
2019-01-20T12:24:31.496Z,37.42
2019-01-20T12:27:02.503Z,37.80
2019-01-20T12:29:33.252Z,37.30
2019-01-20T12:32:04.091Z,35.57
2019-01-20T12:34:34.766Z,38.63
2019-01-20T12:37:05.663Z,34.38
2019-01-20T12:39:36.449Z,38.92
2019-01-20T12:42:07.346Z,31.75
2019-01-20T12:44:37.991Z,35.80
2019-01-20T12:47:08.589Z,34.18
2019-01-20T12:49:39.187Z,35.13
2019-01-20T12:52:10.061Z,37.93
2019-01-20T12:54:41.129Z,39.33
2019-01-20T12:57:11.955Z,34.70
2019-01-20T12:59:42.629Z,37.38
2019-01-20T13:02:13.351Z,33.58
2019-01-20T13:04:44.004Z,31.85
2019-01-20T13:07:14.673Z,37.98
2019-01-20T13:09:45.308Z,30.90
2019-01-20T13:12:15.926Z,31.23
2019-01-20T13:14:46.526Z,36.17
2019-01-20T13:17:17.186Z,35.13
2019-01-20T13:19:47.675Z,31.15
2019-01-20T13:22:18.337Z,41.50
2019-01-20T13:24:48.849Z,38.25
2019-01-20T13:27:19.429Z,30.88
2019-01-20T13:29:50.076Z,27.40
2019-01-20T13:32:20.757Z,33.60
2019-01-20T13:34:51.307Z,31.20
2019-01-20T13:37:22.325Z,30.77
2019-01-20T13:39:53.158Z,28.83
2019-01-20T13:42:24.005Z,27.85
2019-01-20T13:44:54.610Z,26.37
2019-01-20T13:47:25.167Z,27.93
2019-01-20T13:49:55.776Z,24.85
2019-01-20T13:52:26.351Z,27.17
2019-01-20T13:54:56.957Z,28.70
2019-01-20T13:57:27.548Z,29.00
2019-01-20T13:59:58.295Z,23.62
2019-01-20T14:02:28.875Z,26.33
2019-01-20T14:04:59.496Z,24.57
2019-01-20T14:07:30.083Z,18.48
2019-01-20T14:10:00.720Z,30.37
2019-01-20T14:12:31.272Z,21.40
2019-01-20T14:15:01.819Z,23.10
2019-01-20T14:17:32.434Z,21.00
2019-01-20T14:20:02.960Z,22.90
2019-01-20T14:22:34.010Z,19.57
2019-01-20T14:25:04.753Z,19.90
2019-01-20T14:27:35.348Z,22.83
2019-01-20T14:30:08.849Z,25.80
2019-01-20T14:32:39.479Z,26.33
2019-01-20T14:35:11.350Z,32.20
2019-01-20T14:37:42.005Z,35.68
2019-01-20T14:40:14.367Z,31.35
2019-01-20T14:42:44.995Z,35.55
2019-01-20T14:45:16.359Z,35.92
2019-01-20T14:47:47.132Z,32.70
2019-01-20T14:50:26.465Z,31.33
2019-01-20T14:52:57.353Z,32.88
2019-01-20T14:55:27.901Z,31.85
2019-01-20T14:57:58.557Z,27.48
2019-01-20T15:00:35.822Z,30.70
2019-01-20T15:03:08.009Z,31.68
2019-01-20T15:05:38.687Z,35.68
2019-01-20T15:08:10.590Z,32.98
2019-01-20T15:10:41.140Z,34.23
2019-01-20T15:13:11.829Z,39.08
2019-01-20T15:15:42.742Z,43.45
2019-01-20T15:18:13.314Z,36.05
2019-01-20T15:20:44.052Z,38.67
2019-01-20T15:23:14.671Z,38.05
2019-01-20T15:25:45.293Z,39.00
2019-01-20T15:28:15.865Z,35.20
2019-01-20T15:30:46.487Z,33.45
2019-01-20T15:33:36.172Z,26.55
2019-01-20T15:36:06.815Z,27.02
2019-01-20T15:38:37.339Z,32.73
2019-01-20T15:41:09.135Z,40.12
2019-01-20T15:43:40.595Z,41.87
2019-01-20T15:46:11.187Z,46.18
2019-01-20T15:48:41.762Z,47.70
2019-01-20T15:51:12.331Z,51.87
2019-01-20T15:53:42.921Z,53.23
2019-01-20T15:56:13.497Z,54.30
2019-01-20T15:58:44.103Z,47.83
2019-01-20T16:01:14.734Z,52.10
2019-01-20T16:03:45.336Z,51.15
2019-01-20T16:06:15.963Z,51.37
2019-01-20T16:08:46.508Z,54.45
2019-01-20T16:11:17.896Z,55.97
2019-01-20T16:13:48.578Z,45.45
2019-01-20T16:16:19.118Z,48.35
2019-01-20T16:18:49.665Z,48.00
2019-01-20T16:21:20.482Z,48.40
2019-01-20T16:23:51.103Z,52.62
2019-01-20T16:26:21.680Z,41.70
2019-01-20T16:28:52.309Z,57.65
2019-01-20T16:31:22.854Z,46.55
2019-01-20T16:33:53.762Z,43.20
2019-01-20T16:36:24.285Z,46.77
2019-01-20T16:38:54.825Z,42.83
2019-01-20T16:41:25.417Z,43.05
2019-01-20T16:43:56.035Z,43.90
2019-01-20T16:46:26.970Z,44.70
2019-01-20T16:48:58.142Z,46.88
2019-01-20T16:51:28.727Z,49.80
2019-01-20T16:53:59.402Z,43.40
2019-01-20T16:56:30.103Z,45.85
2019-01-20T16:59:00.731Z,42.05
2019-01-20T17:01:32.630Z,41.58
2019-01-20T17:04:03.151Z,35.40
2019-01-20T17:06:33.814Z,44.80
2019-01-20T17:09:07.770Z,52.13
2019-01-20T17:11:39.357Z,48.65
2019-01-20T17:14:09.869Z,48.67
2019-01-20T17:16:40.487Z,56.40
2019-01-20T17:19:17.230Z,48.92
2019-01-20T17:21:44.272Z,57.48
2019-01-20T17:24:14.770Z,48.52
2019-01-20T17:26:45.385Z,43.38
2019-01-20T17:29:16.082Z,45.40
2019-01-20T17:31:46.599Z,45.33
2019-01-20T17:34:17.149Z,44.27
2019-01-20T17:36:47.690Z,43.38
2019-01-20T17:39:18.384Z,48.13
2019-01-20T17:41:49.459Z,43.45
2019-01-20T17:44:20.184Z,41.25
2019-01-20T17:46:50.828Z,53.02
2019-01-20T17:49:21.497Z,44.42
2019-01-20T17:51:52.126Z,47.45
2019-01-20T17:54:23.274Z,48.65
2019-01-20T17:59:30.164Z,40.73
2019-01-20T18:02:00.662Z,45.43
2019-01-20T18:04:31.247Z,55.75
2019-01-20T18:07:01.747Z,50.10
2019-01-20T18:09:32.247Z,53.85
2019-01-20T18:12:02.793Z,46.75
2019-01-20T18:14:33.329Z,52.23
2019-01-20T18:17:03.946Z,53.68
2019-01-20T18:19:34.509Z,58.85
2019-01-20T18:22:05.160Z,67.37
2019-01-20T18:24:35.696Z,60.38
2019-01-20T18:27:06.410Z,59.27
2019-01-20T18:29:36.997Z,64.05
2019-01-20T18:32:07.629Z,70.85
2019-01-20T18:34:38.207Z,65.28
2019-01-20T18:37:09.765Z,71.77
2019-01-20T18:39:40.290Z,61.80
2019-01-20T18:42:10.923Z,71.02
2019-01-20T18:44:41.443Z,67.37
2019-01-20T18:47:12.011Z,66.13
2019-01-20T18:49:42.591Z,75.37
2019-01-20T18:52:13.283Z,70.83
2019-01-20T18:54:43.791Z,69.15
2019-01-20T18:57:14.320Z,61.48
2019-01-20T18:59:44.884Z,63.10
2019-01-20T19:02:15.456Z,73.73
2019-01-20T19:04:46.011Z,64.25
2019-01-20T19:07:16.599Z,66.33
2019-01-20T19:09:47.229Z,69.13
2019-01-20T19:12:17.781Z,65.30
2019-01-20T19:14:48.374Z,81.95
2019-01-20T19:17:19.000Z,75.78
2019-01-20T19:19:49.571Z,75.90
2019-01-20T19:22:20.129Z,67.27
2019-01-20T19:24:50.713Z,68.17
2019-01-20T19:27:21.268Z,74.22
2019-01-20T19:29:51.933Z,75.30
2019-01-20T19:32:22.500Z,81.40
2019-01-20T19:34:53.160Z,73.90
2019-01-20T19:37:23.732Z,73.20
2019-01-20T19:39:54.297Z,65.17
2019-01-20T19:42:24.881Z,67.87
2019-01-20T19:44:55.474Z,78.97
2019-01-20T19:47:26.135Z,65.90
2019-01-20T19:49:56.720Z,64.55
2019-01-20T19:52:27.350Z,68.97
2019-01-20T19:54:58.001Z,71.25
2019-01-20T19:57:28.610Z,73.02
2019-01-20T19:59:59.151Z,72.97
2019-01-20T20:02:29.852Z,70.30
2019-01-20T20:05:00.366Z,70.65
2019-01-20T20:07:30.978Z,82.78
2019-01-20T20:10:01.546Z,63.63
2019-01-20T20:12:32.196Z,61.63
2019-01-20T20:15:02.792Z,66.47
2019-01-20T20:17:33.276Z,63.30
2019-01-20T20:20:04.017Z,67.65
2019-01-20T20:22:34.578Z,67.20
2019-01-20T20:25:06.230Z,79.00
2019-01-20T20:27:36.784Z,68.70
2019-01-20T20:30:13.216Z,81.70
2019-01-20T20:32:43.809Z,77.50
2019-01-20T20:35:14.418Z,79.07
2019-01-20T20:37:44.939Z,81.40
2019-01-20T20:40:17.288Z,75.60
2019-01-20T20:42:47.951Z,75.05
2019-01-20T20:45:21.061Z,92.30
2019-01-20T20:47:51.565Z,76.30
2019-01-20T20:50:22.175Z,68.80
2019-01-20T20:52:52.896Z,74.17
2019-01-20T20:55:23.470Z,72.10
2019-01-20T20:57:53.998Z,76.20
2019-01-20T21:00:43.692Z,77.67
2019-01-20T21:03:29.778Z,91.82
2019-01-20T21:06:00.379Z,74.07
2019-01-20T21:08:31.027Z,71.62
2019-01-20T21:11:01.535Z,68.35
2019-01-20T21:13:32.110Z,69.32
2019-01-20T21:16:02.677Z,80.35
2019-01-20T21:18:33.175Z,66.82
2019-01-20T21:21:03.751Z,70.83
2019-01-20T21:23:34.379Z,72.15
2019-01-20T21:26:05.232Z,71.47
2019-01-20T21:28:35.818Z,87.00
2019-01-20T21:31:06.378Z,69.67
2019-01-20T21:36:06.564Z,83.82
2019-01-20T21:38:37.064Z,88.80
2019-01-20T21:41:08.353Z,80.83
2019-01-20T21:43:38.872Z,76.72
2019-01-20T21:46:09.449Z,71.70
2019-01-20T21:48:41.448Z,79.30
2019-01-20T21:51:12.150Z,76.72
2019-01-20T21:53:42.678Z,79.20
2019-01-20T21:56:14.093Z,63.00
2019-01-20T21:58:44.775Z,72.00
2019-01-20T22:01:15.297Z,71.42
2019-01-20T22:03:45.878Z,64.62
2019-01-20T22:06:16.449Z,67.55
2019-01-20T22:08:48.923Z,64.75
2019-01-20T22:11:19.487Z,75.67
2019-01-20T22:13:50.157Z,68.45
2019-01-20T22:16:20.773Z,69.37
2019-01-20T22:18:51.338Z,66.35
2019-01-20T22:21:21.906Z,82.82
2019-01-20T22:23:52.940Z,111.37
2019-01-20T22:26:23.479Z,81.82
2019-01-20T22:28:55.083Z,81.42
2019-01-20T22:31:25.772Z,90.25
2019-01-20T22:33:56.412Z,81.50
2019-01-20T22:36:27.015Z,80.35
2019-01-20T22:38:57.689Z,72.82
2019-01-20T22:41:28.285Z,72.50
2019-01-20T22:43:58.880Z,75.78
2019-01-20T22:46:29.428Z,81.90
2019-01-20T22:49:01.328Z,79.92
2019-01-20T22:51:32.501Z,77.95
2019-01-20T22:54:03.004Z,79.22
2019-01-20T22:56:33.573Z,77.78
2019-01-20T22:59:04.707Z,75.62
2019-01-20T23:01:36.376Z,83.67
2019-01-20T23:04:07.425Z,81.08
2019-01-20T23:06:38.098Z,76.97
2019-01-20T23:09:10.435Z,92.10
2019-01-20T23:11:41.936Z,75.47
2019-01-20T23:14:12.953Z,80.10
2019-01-20T23:16:45.236Z,76.17
2019-01-20T23:19:15.866Z,77.55
2019-01-20T23:21:46.434Z,83.90
2019-01-20T23:24:17.041Z,83.50
2019-01-20T23:26:47.651Z,81.70
2019-01-20T23:29:18.264Z,83.52
2019-01-20T23:31:48.818Z,72.53
2019-01-20T23:34:19.436Z,78.05
2019-01-20T23:36:50.071Z,82.35
2019-01-20T23:39:20.630Z,74.97
2019-01-20T23:41:51.219Z,69.67
2019-01-20T23:44:21.796Z,84.90
2019-01-20T23:46:52.361Z,73.05
2019-01-20T23:49:22.979Z,77.05
2019-01-20T23:51:53.615Z,76.45
2019-01-20T23:54:24.227Z,72.30
2019-01-20T23:56:54.836Z,77.37
2019-01-20T23:59:25.527Z,81.40
